Главная страница
METAR-TAF:

METAR-TAF

Аэропорты :

Нуакшот, Мавритания

широта: 18-18-36N, долгота: 015-58-11W, высота над уровнем моря: 3 м

Текущие метеонаблюдения

Эта сводка был подготовлена 46 минут назад, в 19:00 UTC
Ветер 16 Узел от северо-западный
Температура 23°C
Влажность 73%
Давление 1012 hPa
Видимость: 8000 м

METAR: GQNO 021900Z 31016KT 8000 NSC 23/18 Q1012 NOSIG

Время: 19:46 (19:46 UTC)

Прогноз

Эта сводка был подготовлена 2 часа и 46 минут назад, в 17:00 UTC
Прогноз действительный с 02-го 18 UTC до 03-го 24 UTC
Ветер 15 Узел от северно-северо-западный
Видимость: 8000 м
Вероятность 30% :
временами
С 03-го 04 UTC до 03-го 08 UTC
Рассеянная облачность на высоте 800 фута

TAF: GQNO 021700Z 0218/0324 34015KT 8000 NSC PROB30 TEMPO 0304/0308 BKN008

Метеонаблюдения и прогнозы для более 4000 аэропортов (сводки METAR и TAF).

Имеющиеся станции представлены на карте желтыми и красными точками.

Чтобы увидеть название станции, наведите на нее мышь.

Затем щелкните, чтобы увидеть метеонаблюдения и метеопрогнозы.

Управление картой: чтобы увеличить масштаб, щелкните зеленые кнопки с черным крестиком; чтобы уменьшить масштаб, щелкните зеленую кнопку с тире; для просмотра соседних карт щелкайте зеленые стрелки.


METAR-TAF: